Time;durP1;ratioP1;P1;durP2;ratioP2;P2;SDS_P1;SDS_P2;PMS_P1;PMS_P2;Temp;Humidity;BMP_temperature;BMP_pressure;BME280_temperature;BME280_humidity;BME280_pressure;Samples;Min_cycle;Max_cycle;Signal;HPM_P1;HPM_P2
2021/10/05 00:00:19;;;;;;;1.08;0.40;;;;;;;;;;5027937;28;20374;-57
2021/10/05 00:02:45;;;;;;;0.50;0.40;;;;;;;;;;5029975;28;20083;-57
2021/10/05 00:05:11;;;;;;;0.30;0.30;;;;;;;;;;5029922;28;20056;-57
2021/10/05 00:07:37;;;;;;;0.40;0.40;;;;;;;;;;5030225;28;20397;-57
2021/10/05 00:10:04;;;;;;;0.88;0.40;;;;;;;;;;5030320;28;20029;-57
2021/10/05 00:12:30;;;;;;;0.20;0.20;;;;;;;;;;5029696;28;20556;-57
2021/10/05 00:14:56;;;;;;;0.30;0.30;;;;;;;;;;5030204;28;20051;-57
2021/10/05 00:17:23;;;;;;;0.30;0.30;;;;;;;;;;5046081;28;20026;-57
2021/10/05 00:19:49;;;;;;;0.20;0.20;;;;;;;;;;5030597;28;20091;-57
2021/10/05 00:22:15;;;;;;;0.30;0.30;;;;;;;;;;5029971;28;20037;-57
2021/10/05 00:24:41;;;;;;;0.22;0.22;;;;;;;;;;5029778;28;20026;-57
2021/10/05 00:27:07;;;;;;;0.20;0.20;;;;;;;;;;5029480;28;20512;-57
2021/10/05 00:29:34;;;;;;;0.40;0.40;;;;;;;;;;5029663;28;20105;-57
2021/10/05 00:32:01;;;;;;;0.20;0.20;;;;;;;;;;5029792;28;20030;-57
2021/10/05 00:34:27;;;;;;;0.30;0.30;;;;;;;;;;5029429;28;20028;-57
2021/10/05 00:36:53;;;;;;;0.30;0.30;;;;;;;;;;5030276;28;20055;-57
2021/10/05 00:39:19;;;;;;;0.30;0.30;;;;;;;;;;5030194;28;20017;-57
2021/10/05 00:41:45;;;;;;;0.50;0.40;;;;;;;;;;5029634;28;20105;-57
2021/10/05 00:44:11;;;;;;;0.30;0.30;;;;;;;;;;5029498;28;20097;-57
2021/10/05 00:46:38;;;;;;;0.30;0.30;;;;;;;;;;5029287;28;20049;-57
2021/10/05 00:49:05;;;;;;;0.30;0.30;;;;;;;;;;5029331;28;20053;-57
2021/10/05 00:51:31;;;;;;;0.30;0.20;;;;;;;;;;5029082;28;20464;-57
2021/10/05 00:53:57;;;;;;;0.30;0.30;;;;;;;;;;5029365;28;20491;-57
2021/10/05 00:56:23;;;;;;;0.20;0.20;;;;;;;;;;5029087;28;20447;-57
2021/10/05 00:58:50;;;;;;;0.43;0.20;;;;;;;;;;5029574;28;20457;-58
2021/10/05 01:01:16;;;;;;;0.35;0.30;;;;;;;;;;5044897;28;20032;-57
2021/10/05 01:03:43;;;;;;;0.20;0.20;;;;;;;;;;5048515;28;20032;-57
2021/10/05 01:06:09;;;;;;;0.30;0.30;;;;;;;;;;5049099;28;20040;-57
2021/10/05 01:08:36;;;;;;;0.85;0.30;;;;;;;;;;5048782;28;20048;-57
2021/10/05 01:11:02;;;;;;;0.30;0.25;;;;;;;;;;5041831;28;20021;-57
2021/10/05 01:13:28;;;;;;;0.32;0.32;;;;;;;;;;5028929;28;20413;-57
2021/10/05 01:15:54;;;;;;;0.30;0.30;;;;;;;;;;5029110;28;20087;-57
2021/10/05 01:18:21;;;;;;;1.15;0.40;;;;;;;;;;5029624;28;20037;-56
2021/10/05 01:20:56;;;;;;;0.85;0.32;;;;;;;;;;5028766;28;20111;-57
2021/10/05 01:23:26;;;;;;;0.50;0.50;;;;;;;;;;5029529;28;20021;-56
2021/10/05 01:25:52;;;;;;;0.30;0.30;;;;;;;;;;5029448;28;20033;-57
2021/10/05 01:28:19;;;;;;;0.30;0.30;;;;;;;;;;5029205;28;20804;-57
2021/10/05 01:30:45;;;;;;;0.20;0.20;;;;;;;;;;5028683;28;20586;-57
2021/10/05 01:33:11;;;;;;;0.30;0.30;;;;;;;;;;5028298;28;20104;-57
2021/10/05 01:35:37;;;;;;;0.25;0.25;;;;;;;;;;5030654;28;20116;-57
2021/10/05 01:38:04;;;;;;;0.38;0.32;;;;;;;;;;5049467;28;20427;-57
2021/10/05 01:40:30;;;;;;;0.93;0.45;;;;;;;;;;5043947;28;20037;-57
2021/10/05 01:42:56;;;;;;;0.47;0.43;;;;;;;;;;5029669;28;20052;-56
2021/10/05 01:45:22;;;;;;;1.08;0.50;;;;;;;;;;5028563;28;20033;-57
2021/10/05 01:47:48;;;;;;;0.50;0.50;;;;;;;;;;5028183;28;20029;-57
2021/10/05 01:50:15;;;;;;;0.40;0.40;;;;;;;;;;5028152;28;20041;-56
2021/10/05 01:52:41;;;;;;;0.57;0.40;;;;;;;;;;5027751;28;20481;-56
2021/10/05 01:55:08;;;;;;;0.30;0.30;;;;;;;;;;5027440;28;20041;-56
2021/10/05 01:57:34;;;;;;;0.52;0.40;;;;;;;;;;5028506;28;20056;-56
2021/10/05 02:00:00;;;;;;;0.47;0.45;;;;;;;;;;5034759;28;20407;-56
2021/10/05 02:02:27;;;;;;;0.50;0.30;;;;;;;;;;5047730;28;20115;-56
2021/10/05 02:04:53;;;;;;;0.38;0.38;;;;;;;;;;5046729;28;20025;-56
2021/10/05 02:07:19;;;;;;;1.55;0.40;;;;;;;;;;5048291;28;20058;-56
2021/10/05 02:09:48;;;;;;;0.30;0.30;;;;;;;;;;5047900;28;20037;-57
2021/10/05 02:12:15;;;;;;;0.30;0.30;;;;;;;;;;5047858;28;20079;-57
2021/10/05 02:14:42;;;;;;;0.35;0.30;;;;;;;;;;5047673;28;20087;-57
2021/10/05 02:17:08;;;;;;;0.38;0.35;;;;;;;;;;5040152;28;20465;-56
2021/10/05 02:19:35;;;;;;;0.75;0.30;;;;;;;;;;5028077;28;20034;-57
2021/10/05 02:22:01;;;;;;;0.43;0.40;;;;;;;;;;5027679;28;20033;-56
2021/10/05 02:26:53;;;;;;;0.52;0.38;;;;;;;;;;5027725;28;20064;-57
2021/10/05 02:29:20;;;;;;;0.70;0.70;;;;;;;;;;5027686;28;20083;-57
2021/10/05 02:31:46;;;;;;;0.52;0.40;;;;;;;;;;5027285;28;20488;-57
2021/10/05 02:34:13;;;;;;;0.88;0.40;;;;;;;;;;5042648;28;20112;-56
2021/10/05 02:36:39;;;;;;;0.90;0.40;;;;;;;;;;5027459;28;20091;-56
2021/10/05 02:39:06;;;;;;;0.40;0.40;;;;;;;;;;5028038;28;20033;-56
2021/10/05 02:41:32;;;;;;;0.30;0.30;;;;;;;;;;5027552;28;20037;-56
2021/10/05 02:43:58;;;;;;;0.30;0.30;;;;;;;;;;5027287;28;20029;-56
2021/10/05 02:46:24;;;;;;;0.20;0.20;;;;;;;;;;5027029;28;20040;-56
2021/10/05 02:48:50;;;;;;;0.30;0.30;;;;;;;;;;5026905;28;20037;-56
2021/10/05 02:51:16;;;;;;;0.50;0.50;;;;;;;;;;5027511;28;20053;-56
2021/10/05 02:53:42;;;;;;;0.20;0.20;;;;;;;;;;5026901;28;20026;-56
2021/10/05 02:56:08;;;;;;;0.20;0.20;;;;;;;;;;5026905;28;20029;-56
2021/10/05 02:58:35;;;;;;;1.17;0.45;;;;;;;;;;5027055;28;20581;-56
2021/10/05 03:01:01;;;;;;;0.38;0.38;;;;;;;;;;5044591;28;20423;-56
2021/10/05 03:03:27;;;;;;;0.75;0.32;;;;;;;;;;5041120;28;20037;-55
2021/10/05 03:05:53;;;;;;;0.38;0.38;;;;;;;;;;5027209;28;20046;-56
2021/10/05 03:08:19;;;;;;;0.20;0.20;;;;;;;;;;5026855;28;20523;-56
2021/10/05 03:10:45;;;;;;;0.30;0.30;;;;;;;;;;5026865;28;20560;-56
2021/10/05 03:13:11;;;;;;;0.30;0.30;;;;;;;;;;5027037;28;20070;-56
2021/10/05 03:15:38;;;;;;;0.32;0.32;;;;;;;;;;5027541;28;20036;-56
2021/10/05 03:18:04;;;;;;;0.30;0.30;;;;;;;;;;5046896;28;20025;-56
2021/10/05 03:20:30;;;;;;;0.30;0.30;;;;;;;;;;5046625;28;20407;-57
2021/10/05 03:22:56;;;;;;;0.20;0.20;;;;;;;;;;5046478;28;20131;-56
2021/10/05 03:25:22;;;;;;;1.40;0.30;;;;;;;;;;5034379;28;20668;-56
2021/10/05 03:27:48;;;;;;;0.25;0.25;;;;;;;;;;5026382;28;20104;-57
2021/10/05 03:30:14;;;;;;;0.75;0.40;;;;;;;;;;5026908;28;20630;-56
2021/10/05 03:32:40;;;;;;;0.28;0.28;;;;;;;;;;5026220;28;20457;-56
2021/10/05 03:35:06;;;;;;;0.63;0.35;;;;;;;;;;5025967;28;20030;-56
2021/10/05 03:37:32;;;;;;;0.20;0.20;;;;;;;;;;5026925;28;20035;-56
2021/10/05 03:39:58;;;;;;;0.22;0.20;;;;;;;;;;5026418;28;20029;-57
2021/10/05 03:42:25;;;;;;;0.30;0.30;;;;;;;;;;5026360;28;20116;-56
2021/10/05 03:44:51;;;;;;;0.30;0.30;;;;;;;;;;5026573;28;20408;-56
2021/10/05 03:47:17;;;;;;;0.68;0.57;;;;;;;;;;5026562;28;20104;-56
2021/10/05 03:49:43;;;;;;;0.30;0.30;;;;;;;;;;5025552;28;20025;-56
2021/10/05 03:52:09;;;;;;;0.22;0.22;;;;;;;;;;5026391;28;20535;-56
2021/10/05 03:54:35;;;;;;;0.38;0.30;;;;;;;;;;5026850;28;20021;-56
2021/10/05 03:57:02;;;;;;;0.40;0.40;;;;;;;;;;5030715;28;20025;-57
2021/10/05 03:59:28;;;;;;;0.32;0.30;;;;;;;;;;5045721;28;20025;-57
2021/10/05 04:01:54;;;;;;;0.65;0.40;;;;;;;;;;5045884;28;20032;-57
2021/10/05 04:04:20;;;;;;;0.30;0.30;;;;;;;;;;5046193;28;20029;-57
2021/10/05 04:06:46;;;;;;;0.40;0.40;;;;;;;;;;5036914;28;20033;-57
2021/10/05 04:09:12;;;;;;;0.30;0.30;;;;;;;;;;5026564;28;20017;-57
2021/10/05 04:11:39;;;;;;;1.08;0.38;;;;;;;;;;5025987;28;20053;-57
2021/10/05 04:14:05;;;;;;;1.00;0.40;;;;;;;;;;5026800;28;20021;-57
2021/10/05 04:16:31;;;;;;;0.30;0.30;;;;;;;;;;5025991;28;20029;-57
2021/10/05 04:18:57;;;;;;;0.40;0.30;;;;;;;;;;5026261;28;20068;-57
2021/10/05 04:21:23;;;;;;;0.55;0.55;;;;;;;;;;5026041;28;20080;-57
2021/10/05 04:23:49;;;;;;;0.40;0.40;;;;;;;;;;5026347;28;20400;-57
2021/10/05 04:26:15;;;;;;;0.98;0.47;;;;;;;;;;5026332;28;20036;-56
2021/10/05 04:28:42;;;;;;;0.40;0.40;;;;;;;;;;5026078;28;20026;-57
2021/10/05 04:31:08;;;;;;;0.50;0.50;;;;;;;;;;5026134;28;20096;-57
2021/10/05 04:33:35;;;;;;;0.30;0.30;;;;;;;;;;5026504;28;20508;-57
2021/10/05 04:36:01;;;;;;;0.40;0.40;;;;;;;;;;5026069;28;20039;-57
2021/10/05 04:38:27;;;;;;;0.40;0.40;;;;;;;;;;5026134;28;20083;-58
2021/10/05 04:40:53;;;;;;;0.30;0.20;;;;;;;;;;5026180;28;20078;-58
2021/10/05 04:43:19;;;;;;;0.22;0.22;;;;;;;;;;5025597;28;20388;-58
2021/10/05 04:45:46;;;;;;;0.77;0.45;;;;;;;;;;5025434;28;20026;-58
2021/10/05 04:48:12;;;;;;;0.30;0.30;;;;;;;;;;5029267;28;20022;-58
2021/10/05 04:50:38;;;;;;;0.40;0.40;;;;;;;;;;5029487;28;20026;-58
2021/10/05 04:53:04;;;;;;;0.47;0.47;;;;;;;;;;5030265;28;20087;-57
2021/10/05 04:55:30;;;;;;;0.40;0.30;;;;;;;;;;5029004;28;20575;-56
2021/10/05 04:57:57;;;;;;;0.52;0.40;;;;;;;;;;5029144;28;20109;-56
2021/10/05 05:00:23;;;;;;;0.50;0.50;;;;;;;;;;5033922;28;20087;-56
2021/10/05 05:02:49;;;;;;;0.40;0.40;;;;;;;;;;5031218;28;20029;-57
2021/10/05 05:05:15;;;;;;;0.30;0.30;;;;;;;;;;5038450;28;20701;-57
2021/10/05 05:07:41;;;;;;;0.50;0.45;;;;;;;;;;5031591;28;20092;-57
2021/10/05 05:10:08;;;;;;;0.30;0.30;;;;;;;;;;5032143;28;20029;-57
2021/10/05 05:12:35;;;;;;;0.47;0.30;;;;;;;;;;5038924;28;20082;-58
2021/10/05 05:15:01;;;;;;;0.50;0.43;;;;;;;;;;5045880;28;20095;-58
2021/10/05 05:17:27;;;;;;;0.30;0.30;;;;;;;;;;5028406;28;20080;-58
2021/10/05 05:19:54;;;;;;;0.30;0.30;;;;;;;;;;5031438;28;20017;-59
2021/10/05 05:22:20;;;;;;;0.68;0.57;;;;;;;;;;5033238;28;20037;-58
2021/10/05 05:24:46;;;;;;;1.52;0.90;;;;;;;;;;5028682;28;20587;-59
2021/10/05 05:27:13;;;;;;;1.10;0.82;;;;;;;;;;5028985;28;20056;-58
2021/10/05 05:29:39;;;;;;;1.67;0.90;;;;;;;;;;5028804;28;20447;-58
2021/10/05 05:32:05;;;;;;;1.40;0.80;;;;;;;;;;5032329;28;20021;-58
2021/10/05 05:34:31;;;;;;;0.68;0.68;;;;;;;;;;5048421;28;20040;-58
2021/10/05 05:36:57;;;;;;;1.33;0.80;;;;;;;;;;5038782;28;20482;-58
2021/10/05 05:39:23;;;;;;;1.48;0.60;;;;;;;;;;5035825;28;20078;-58
2021/10/05 05:41:49;;;;;;;2.15;1.02;;;;;;;;;;5032498;28;20683;-58
2021/10/05 05:44:15;;;;;;;0.65;0.60;;;;;;;;;;5034334;28;20498;-58
2021/10/05 05:46:42;;;;;;;0.60;0.60;;;;;;;;;;5028140;28;20029;-58
2021/10/05 05:49:08;;;;;;;0.70;0.50;;;;;;;;;;5028447;28;20021;-58
2021/10/05 05:51:36;;;;;;;0.77;0.70;;;;;;;;;;5028936;28;20536;-58
2021/10/05 05:54:02;;;;;;;0.50;0.50;;;;;;;;;;5032573;28;20115;-58
2021/10/05 05:56:28;;;;;;;0.47;0.47;;;;;;;;;;5045141;28;20106;-58
2021/10/05 05:58:55;;;;;;;0.60;0.50;;;;;;;;;;5026310;28;20081;-58
2021/10/05 06:01:21;;;;;;;0.60;0.60;;;;;;;;;;5037076;28;20103;-58
2021/10/05 06:03:49;;;;;;;0.85;0.60;;;;;;;;;;5028024;28;20105;-58
2021/10/05 06:06:17;;;;;;;0.50;0.50;;;;;;;;;;5033349;28;20048;-58
2021/10/05 06:08:43;;;;;;;0.40;0.40;;;;;;;;;;5047942;28;20023;-58
2021/10/05 06:11:09;;;;;;;0.60;0.60;;;;;;;;;;5047970;28;20025;-58
2021/10/05 06:13:35;;;;;;;1.25;0.60;;;;;;;;;;5045440;28;20064;-59
2021/10/05 06:16:02;;;;;;;0.88;0.65;;;;;;;;;;5026720;28;20052;-58
2021/10/05 06:18:29;;;;;;;0.50;0.50;;;;;;;;;;5026300;28;20456;-58
2021/10/05 06:20:55;;;;;;;0.93;0.57;;;;;;;;;;5026336;28;20550;-59
2021/10/05 06:23:22;;;;;;;1.33;0.68;;;;;;;;;;5026542;28;20033;-59
2021/10/05 06:25:48;;;;;;;0.55;0.55;;;;;;;;;;5026205;28;20026;-59
2021/10/05 06:28:14;;;;;;;0.70;0.50;;;;;;;;;;5027494;28;20060;-59
2021/10/05 06:30:40;;;;;;;0.77;0.50;;;;;;;;;;5026005;28;20025;-59
2021/10/05 06:33:06;;;;;;;0.50;0.50;;;;;;;;;;5027823;28;20030;-59
2021/10/05 06:35:32;;;;;;;0.57;0.47;;;;;;;;;;5026007;28;20025;-59
2021/10/05 06:37:59;;;;;;;0.50;0.50;;;;;;;;;;5026160;28;20028;-59
2021/10/05 06:40:26;;;;;;;1.73;0.60;;;;;;;;;;5026887;28;20372;-59
2021/10/05 06:42:53;;;;;;;1.08;0.65;;;;;;;;;;5040833;28;20025;-59
2021/10/05 06:45:19;;;;;;;0.60;0.60;;;;;;;;;;5047143;28;20120;-59
2021/10/05 06:47:46;;;;;;;1.02;0.52;;;;;;;;;;5038233;28;20056;-59
2021/10/05 06:50:12;;;;;;;0.63;0.50;;;;;;;;;;5026991;28;20029;-59
2021/10/05 06:52:38;;;;;;;1.02;0.43;;;;;;;;;;5025737;28;20096;-59
2021/10/05 06:55:04;;;;;;;0.70;0.50;;;;;;;;;;5026562;28;20113;-59
2021/10/05 06:57:31;;;;;;;0.80;0.47;;;;;;;;;;5027474;28;20021;-59
2021/10/05 06:59:58;;;;;;;0.40;0.40;;;;;;;;;;5033599;28;20044;-59
2021/10/05 07:02:25;;;;;;;1.95;0.60;;;;;;;;;;5045192;28;20575;-59
2021/10/05 07:04:51;;;;;;;0.60;0.60;;;;;;;;;;5031369;28;20417;-58
2021/10/05 07:07:17;;;;;;;0.40;0.40;;;;;;;;;;5025661;28;20021;-59
2021/10/05 07:09:43;;;;;;;0.80;0.50;;;;;;;;;;5025491;28;20029;-59
2021/10/05 07:12:09;;;;;;;0.35;0.35;;;;;;;;;;5025522;28;20060;-59
2021/10/05 07:14:35;;;;;;;0.68;0.30;;;;;;;;;;5025744;28;20492;-59
2021/10/05 07:17:02;;;;;;;0.30;0.30;;;;;;;;;;5025369;28;20033;-59
2021/10/05 07:19:28;;;;;;;0.60;0.60;;;;;;;;;;5028352;28;20105;-58
2021/10/05 07:21:54;;;;;;;0.57;0.50;;;;;;;;;;5040852;28;20112;-58
2021/10/05 07:24:20;;;;;;;0.45;0.40;;;;;;;;;;5060967;28;20436;-58
2021/10/05 07:26:47;;;;;;;0.38;0.32;;;;;;;;;;5027106;28;20409;-59
2021/10/05 07:29:14;;;;;;;0.30;0.30;;;;;;;;;;5028546;28;20393;-58
2021/10/05 07:31:40;;;;;;;0.30;0.30;;;;;;;;;;5025496;28;20416;-58
2021/10/05 07:34:07;;;;;;;0.30;0.30;;;;;;;;;;5025863;28;20075;-58
2021/10/05 07:36:33;;;;;;;0.60;0.50;;;;;;;;;;5025732;28;20037;-58
2021/10/05 07:39:00;;;;;;;0.40;0.40;;;;;;;;;;5025224;28;20180;-58
2021/10/05 07:41:27;;;;;;;0.47;0.40;;;;;;;;;;5025035;28;20415;-58
2021/10/05 07:43:53;;;;;;;0.68;0.50;;;;;;;;;;5025388;28;20036;-58
2021/10/05 07:46:21;;;;;;;0.57;0.50;;;;;;;;;;5024875;28;20026;-58
2021/10/05 07:48:47;;;;;;;0.57;0.57;;;;;;;;;;5024890;28;20018;-58
2021/10/05 07:51:15;;;;;;;0.85;0.50;;;;;;;;;;5025059;28;20037;-58
2021/10/05 07:53:41;;;;;;;0.95;0.52;;;;;;;;;;5024773;28;20025;-59
2021/10/05 07:56:07;;;;;;;0.40;0.40;;;;;;;;;;5025583;28;20043;-59
2021/10/05 07:58:34;;;;;;;0.50;0.50;;;;;;;;;;5024826;28;20036;-58
2021/10/05 08:01:00;;;;;;;0.55;0.55;;;;;;;;;;5024515;28;20107;-58
2021/10/05 08:03:26;;;;;;;0.40;0.40;;;;;;;;;;5025039;28;20455;-58
2021/10/05 08:05:52;;;;;;;0.50;0.50;;;;;;;;;;5040058;28;20117;-59
2021/10/05 08:08:18;;;;;;;0.30;0.30;;;;;;;;;;5040121;28;20116;-58
2021/10/05 08:10:44;;;;;;;0.70;0.57;;;;;;;;;;5024737;28;20029;-59
2021/10/05 08:13:11;;;;;;;0.40;0.40;;;;;;;;;;5024617;28;20084;-59
2021/10/05 08:15:38;;;;;;;0.45;0.45;;;;;;;;;;5025288;28;20455;-59
2021/10/05 08:18:06;;;;;;;0.50;0.50;;;;;;;;;;5025492;28;20022;-58
2021/10/05 08:20:33;;;;;;;0.60;0.52;;;;;;;;;;5025073;28;20060;-59
2021/10/05 08:23:00;;;;;;;0.52;0.50;;;;;;;;;;5028198;28;20029;-58
2021/10/05 08:25:27;;;;;;;0.50;0.50;;;;;;;;;;5028249;28;20419;-59
2021/10/05 08:27:54;;;;;;;0.40;0.40;;;;;;;;;;5028748;28;20405;-59
2021/10/05 08:30:21;;;;;;;0.47;0.47;;;;;;;;;;5028379;28;20022;-59
2021/10/05 08:32:47;;;;;;;0.40;0.40;;;;;;;;;;5028447;28;20035;-59
2021/10/05 08:35:14;;;;;;;0.40;0.40;;;;;;;;;;5028607;28;20037;-59
2021/10/05 08:37:40;;;;;;;0.57;0.57;;;;;;;;;;5028160;28;20021;-59
2021/10/05 08:40:07;;;;;;;0.65;0.50;;;;;;;;;;5029134;28;20029;-59
2021/10/05 08:42:34;;;;;;;2.03;0.60;;;;;;;;;;5028548;28;20404;-59
2021/10/05 08:45:02;;;;;;;0.40;0.40;;;;;;;;;;5028318;28;20405;-59
2021/10/05 08:47:28;;;;;;;0.50;0.50;;;;;;;;;;5043379;28;20539;-59
2021/10/05 08:49:55;;;;;;;0.60;0.60;;;;;;;;;;5043492;28;20057;-58
2021/10/05 08:52:21;;;;;;;0.30;0.30;;;;;;;;;;5028219;28;20028;-59
2021/10/05 08:54:47;;;;;;;1.00;0.60;;;;;;;;;;5028222;28;20408;-59
2021/10/05 08:57:14;;;;;;;0.68;0.65;;;;;;;;;;5028612;28;20026;-59
2021/10/05 08:59:40;;;;;;;0.60;0.50;;;;;;;;;;5027220;28;20435;-59
2021/10/05 09:02:17;;;;;;;0.30;0.30;;;;;;;;;;5028793;28;20029;-59
2021/10/05 09:04:43;;;;;;;0.60;0.60;;;;;;;;;;5027489;28;20433;-59
2021/10/05 09:07:19;;;;;;;0.77;0.60;;;;;;;;;;5028099;28;20036;-59
2021/10/05 09:09:55;;;;;;;1.17;0.82;;;;;;;;;;5027582;28;20060;-59
2021/10/05 09:12:23;;;;;;;1.83;1.15;;;;;;;;;;5027876;28;20025;-59
2021/10/05 09:14:49;;;;;;;2.53;1.00;;;;;;;;;;5027917;28;20373;-59
2021/10/05 09:17:22;;;;;;;1.50;1.20;;;;;;;;;;5027826;28;20025;-59
2021/10/05 09:19:49;;;;;;;1.83;1.40;;;;;;;;;;5027518;28;20025;-59
2021/10/05 09:22:16;;;;;;;1.80;1.13;;;;;;;;;;5027629;28;20018;-59
2021/10/05 09:24:45;;;;;;;1.60;0.93;;;;;;;;;;5027181;28;20409;-58
2021/10/05 09:27:12;;;;;;;1.20;0.98;;;;;;;;;;5027435;28;20028;-59
2021/10/05 09:29:39;;;;;;;0.75;0.70;;;;;;;;;;5027544;28;20028;-59
2021/10/05 09:32:05;;;;;;;2.38;0.73;;;;;;;;;;5027842;28;20421;-59
2021/10/05 09:34:37;;;;;;;0.52;0.52;;;;;;;;;;5027157;28;20113;-59
2021/10/05 09:37:16;;;;;;;0.90;0.40;;;;;;;;;;5027308;28;20025;-59
2021/10/05 09:39:47;;;;;;;0.60;0.50;;;;;;;;;;5026842;28;20169;-59
2021/10/05 09:42:21;;;;;;;0.40;0.40;;;;;;;;;;5042265;28;20249;-59
2021/10/05 09:45:10;;;;;;;0.30;0.30;;;;;;;;;;5026806;28;20440;-59
2021/10/05 09:47:36;;;;;;;0.47;0.40;;;;;;;;;;5029441;28;20043;-58
2021/10/05 09:50:09;;;;;;;0.40;0.40;;;;;;;;;;5027187;28;20026;-58
2021/10/05 09:52:51;;;;;;;0.40;0.40;;;;;;;;;;5027501;28;20021;-59
2021/10/05 09:55:18;;;;;;;0.50;0.40;;;;;;;;;;5042493;28;20460;-59
2021/10/05 09:57:44;;;;;;;0.90;0.50;;;;;;;;;;5026675;28;20026;-59
2021/10/05 10:00:12;;;;;;;1.05;0.50;;;;;;;;;;5026283;28;20112;-59
2021/10/05 10:02:39;;;;;;;0.40;0.40;;;;;;;;;;5027390;28;20489;-59
2021/10/05 10:05:09;;;;;;;0.30;0.30;;;;;;;;;;5027459;28;20104;-59
2021/10/05 10:07:39;;;;;;;0.30;0.30;;;;;;;;;;5027077;28;20496;-59
2021/10/05 10:10:07;;;;;;;1.02;0.70;;;;;;;;;;5042561;28;20017;-59
2021/10/05 10:12:33;;;;;;;0.30;0.30;;;;;;;;;;5026556;28;20026;-59
2021/10/05 10:14:59;;;;;;;1.13;0.40;;;;;;;;;;5026609;28;20117;-59
2021/10/05 10:17:26;;;;;;;0.47;0.38;;;;;;;;;;5026562;28;20459;-59
2021/10/05 10:19:52;;;;;;;0.80;0.50;;;;;;;;;;5026736;28;20029;-59
2021/10/05 10:22:19;;;;;;;0.40;0.40;;;;;;;;;;5026393;28;20059;-59
2021/10/05 10:24:50;;;;;;;0.70;0.40;;;;;;;;;;5026023;28;20037;-59
2021/10/05 10:27:16;;;;;;;0.40;0.40;;;;;;;;;;5035732;28;20021;-59
2021/10/05 10:29:42;;;;;;;0.45;0.40;;;;;;;;;;5042358;28;20056;-58
2021/10/05 10:32:19;;;;;;;0.30;0.30;;;;;;;;;;5043041;28;20018;-58
2021/10/05 10:35:00;;;;;;;0.40;0.40;;;;;;;;;;5039441;28;20032;-58
2021/10/05 10:37:26;;;;;;;1.88;0.30;;;;;;;;;;5042702;28;20028;-58
2021/10/05 10:39:54;;;;;;;0.45;0.30;;;;;;;;;;5037105;28;20032;-58
2021/10/05 10:42:27;;;;;;;0.40;0.40;;;;;;;;;;5046351;28;20036;-58
2021/10/05 10:44:53;;;;;;;0.57;0.40;;;;;;;;;;5026855;28;20758;-58
2021/10/05 10:47:24;;;;;;;0.68;0.52;;;;;;;;;;5027663;28;20034;-58
2021/10/05 10:49:56;;;;;;;0.50;0.50;;;;;;;;;;5027389;28;20048;-58
2021/10/05 10:52:29;;;;;;;1.38;0.50;;;;;;;;;;5027404;28;20032;-58
2021/10/05 10:54:56;;;;;;;0.60;0.47;;;;;;;;;;5039132;28;20658;-58
2021/10/05 10:57:33;;;;;;;0.40;0.40;;;;;;;;;;5037030;28;20106;-58
2021/10/05 11:00:28;;;;;;;0.50;0.40;;;;;;;;;;5046848;28;20033;-59
2021/10/05 11:02:58;;;;;;;2.17;0.52;;;;;;;;;;5045752;28;20127;-59
2021/10/05 11:05:26;;;;;;;0.82;0.55;;;;;;;;;;5046827;28;20404;-58
2021/10/05 11:07:52;;;;;;;0.57;0.32;;;;;;;;;;5045965;28;20029;-59
2021/10/05 11:10:26;;;;;;;1.00;0.65;;;;;;;;;;5045656;28;20396;-59
2021/10/05 11:12:52;;;;;;;1.48;0.68;;;;;;;;;;5044994;28;20500;-59
2021/10/05 11:15:52;;;;;;;1.77;0.98;;;;;;;;;;5045699;28;20100;-59
2021/10/05 11:18:19;;;;;;;0.40;0.40;;;;;;;;;;5043949;28;20033;-58
2021/10/05 11:20:46;;;;;;;0.40;0.40;;;;;;;;;;5045130;28;20488;-59
2021/10/05 11:23:14;;;;;;;0.60;0.40;;;;;;;;;;5045189;28;20509;-59
2021/10/05 11:25:45;;;;;;;1.00;0.50;;;;;;;;;;5045042;28;20480;-59
2021/10/05 11:28:12;;;;;;;0.60;0.60;;;;;;;;;;5045220;28;20500;-59
2021/10/05 11:30:53;;;;;;;1.00;0.80;;;;;;;;;;5045922;28;20044;-59
2021/10/05 11:33:20;;;;;;;1.45;1.00;;;;;;;;;;5045191;28;20028;-59
2021/10/05 11:35:46;;;;;;;1.38;0.70;;;;;;;;;;5044877;28;20021;-59
2021/10/05 11:38:13;;;;;;;2.03;0.88;;;;;;;;;;5045318;28;20036;-59
2021/10/05 11:40:49;;;;;;;0.80;0.50;;;;;;;;;;5045058;28;20079;-59
2021/10/05 11:43:15;;;;;;;0.95;0.52;;;;;;;;;;5044909;28;20422;-59
2021/10/05 11:45:41;;;;;;;1.27;0.60;;;;;;;;;;5044908;28;20493;-59
2021/10/05 11:48:07;;;;;;;0.63;0.60;;;;;;;;;;5045684;28;20040;-59
2021/10/05 11:50:34;;;;;;;0.50;0.50;;;;;;;;;;5044742;28;20029;-59
2021/10/05 11:53:01;;;;;;;0.82;0.43;;;;;;;;;;5044901;28;20036;-59
2021/10/05 11:55:27;;;;;;;0.43;0.43;;;;;;;;;;5044898;28;20033;-58
2021/10/05 11:57:56;;;;;;;1.00;0.60;;;;;;;;;;5048191;28;20313;-59
2021/10/05 12:00:22;;;;;;;1.35;0.50;;;;;;;;;;5048409;28;20040;-58
2021/10/05 12:02:48;;;;;;;1.75;0.70;;;;;;;;;;5048680;28;20422;-59
2021/10/05 12:05:24;;;;;;;3.13;0.70;;;;;;;;;;5048976;28;20021;-59
2021/10/05 12:07:50;;;;;;;1.52;0.68;;;;;;;;;;5048914;28;20021;-58
2021/10/05 12:10:17;;;;;;;2.42;0.80;;;;;;;;;;5049071;28;20029;-59
2021/10/05 12:12:43;;;;;;;0.73;0.65;;;;;;;;;;5048668;28;20075;-59
2021/10/05 12:15:15;;;;;;;0.90;0.50;;;;;;;;;;5049424;28;20064;-59
2021/10/05 12:17:41;;;;;;;1.48;0.73;;;;;;;;;;5048469;28;20029;-59
2021/10/05 12:20:15;;;;;;;2.17;0.75;;;;;;;;;;5049439;28;20032;-58
2021/10/05 12:22:42;;;;;;;;;;;;;;;;;;5048960;28;20508;-59
2021/10/05 12:25:17;;;;;;;1.38;0.60;;;;;;;;;;5049511;28;19915;-58
2021/10/05 12:27:46;;;;;;;2.05;1.00;;;;;;;;;;5048180;28;20086;-59
2021/10/05 12:30:13;;;;;;;1.67;0.50;;;;;;;;;;5048564;28;20523;-59
2021/10/05 12:32:39;;;;;;;1.02;0.60;;;;;;;;;;5048098;28;20056;-59
2021/10/05 12:35:07;;;;;;;1.17;0.50;;;;;;;;;;5049189;28;20029;-59
2021/10/05 12:37:34;;;;;;;1.13;0.50;;;;;;;;;;5048169;28;20031;-58
2021/10/05 12:40:04;;;;;;;1.25;0.73;;;;;;;;;;5048579;28;20056;-58
2021/10/05 12:42:40;;;;;;;0.93;0.47;;;;;;;;;;5047736;28;20056;-58
2021/10/05 12:45:11;;;;;;;1.17;0.60;;;;;;;;;;5048976;28;20116;-58
2021/10/05 12:47:37;;;;;;;0.85;0.50;;;;;;;;;;5048574;28;20033;-58
2021/10/05 12:50:03;;;;;;;0.50;0.40;;;;;;;;;;5048266;28;20036;-58
2021/10/05 12:52:30;;;;;;;0.90;0.50;;;;;;;;;;5048266;28;20029;-58
2021/10/05 12:54:57;;;;;;;0.70;0.40;;;;;;;;;;5048309;28;20052;-58
2021/10/05 12:57:23;;;;;;;1.08;0.47;;;;;;;;;;5048286;28;20129;-58
2021/10/05 12:59:53;;;;;;;1.52;0.68;;;;;;;;;;5047526;28;20106;-58
2021/10/05 13:02:19;;;;;;;0.88;0.40;;;;;;;;;;5047926;28;20037;-58
2021/10/05 13:04:46;;;;;;;1.35;0.55;;;;;;;;;;5047663;28;20029;-58
2021/10/05 13:07:13;;;;;;;1.45;0.50;;;;;;;;;;5047393;28;20486;-58
2021/10/05 13:09:39;;;;;;;0.88;0.55;;;;;;;;;;5048416;28;20025;-58
2021/10/05 13:12:05;;;;;;;1.00;0.50;;;;;;;;;;5048470;28;20025;-58
2021/10/05 13:14:31;;;;;;;0.40;0.40;;;;;;;;;;5047139;28;20025;-58
2021/10/05 13:16:57;;;;;;;0.60;0.50;;;;;;;;;;5047953;28;20029;-58
2021/10/05 13:19:23;;;;;;;1.45;0.57;;;;;;;;;;5062926;28;20504;-59
2021/10/05 13:21:49;;;;;;;2.55;0.50;;;;;;;;;;5047525;28;20033;-59
2021/10/05 13:24:15;;;;;;;0.40;0.30;;;;;;;;;;5047640;28;20504;-58
2021/10/05 13:26:44;;;;;;;1.50;0.40;;;;;;;;;;5047095;28;20074;-59
2021/10/05 13:29:10;;;;;;;1.98;0.60;;;;;;;;;;5047560;28;20028;-58
2021/10/05 13:31:36;;;;;;;1.58;1.08;;;;;;;;;;5046158;28;20025;-58
2021/10/05 13:34:02;;;;;;;0.88;0.50;;;;;;;;;;5047660;28;20555;-59
2021/10/05 13:36:28;;;;;;;0.52;0.40;;;;;;;;;;5027926;28;20030;-58
2021/10/05 13:38:54;;;;;;;1.20;0.57;;;;;;;;;;5027215;28;20108;-59
2021/10/05 13:41:20;;;;;;;1.27;0.50;;;;;;;;;;5027137;28;20105;-59
2021/10/05 13:43:47;;;;;;;0.35;0.30;;;;;;;;;;5027604;28;20132;-58
2021/10/05 13:46:14;;;;;;;2.03;0.55;;;;;;;;;;5026769;28;20118;-58
2021/10/05 13:48:40;;;;;;;1.13;0.60;;;;;;;;;;5026799;28;20028;-58
2021/10/05 13:51:06;;;;;;;0.60;0.60;;;;;;;;;;5027055;28;20025;-58
2021/10/05 13:53:32;;;;;;;1.80;0.43;;;;;;;;;;5027033;28;20032;-58
2021/10/05 13:55:59;;;;;;;1.00;0.55;;;;;;;;;;5026703;28;20567;-58
2021/10/05 13:58:25;;;;;;;1.02;0.50;;;;;;;;;;5026548;28;20228;-57
2021/10/05 14:00:51;;;;;;;0.60;0.40;;;;;;;;;;5026598;28;20292;-58
2021/10/05 14:03:17;;;;;;;1.02;0.55;;;;;;;;;;5027738;28;20112;-58
2021/10/05 14:05:44;;;;;;;0.40;0.38;;;;;;;;;;5025974;28;20781;-58
2021/10/05 14:08:11;;;;;;;1.38;0.50;;;;;;;;;;5025311;28;20484;-58
2021/10/05 14:10:37;;;;;;;0.35;0.32;;;;;;;;;;5026146;28;20037;-58
2021/10/05 14:13:03;;;;;;;1.33;0.55;;;;;;;;;;5026580;28;20091;-58
2021/10/05 14:15:29;;;;;;;1.10;0.60;;;;;;;;;;5026288;28;20460;-58
2021/10/05 14:17:55;;;;;;;1.90;0.75;;;;;;;;;;5026450;28;20025;-58
2021/10/05 14:20:22;;;;;;;0.95;0.45;;;;;;;;;;5025668;28;20025;-58
2021/10/05 14:22:49;;;;;;;0.82;0.60;;;;;;;;;;5026916;28;20048;-58
2021/10/05 14:25:18;;;;;;;0.98;0.68;;;;;;;;;;5026862;28;20025;-58
2021/10/05 14:27:47;;;;;;;1.35;0.65;;;;;;;;;;5026474;28;20133;-58
2021/10/05 14:30:13;;;;;;;0.77;0.60;;;;;;;;;;5026284;28;20036;-59
2021/10/05 14:32:40;;;;;;;0.60;0.40;;;;;;;;;;5025802;28;20569;-58
2021/10/05 14:35:06;;;;;;;0.82;0.50;;;;;;;;;;5026077;28;20039;-58
2021/10/05 14:37:33;;;;;;;1.23;0.70;;;;;;;;;;5026067;28;20547;-59
2021/10/05 14:39:59;;;;;;;1.30;0.55;;;;;;;;;;5025220;28;20322;-58
2021/10/05 14:42:25;;;;;;;0.40;0.38;;;;;;;;;;5025685;28;20463;-59
2021/10/05 14:44:51;;;;;;;0.70;0.60;;;;;;;;;;5025786;28;20029;-59